Cecil Field, Florida
Current Conditions -  °F | °C
As of 2:50 PM on Friday 31 Oct 2014 (Local Time) from KVQQ Reporting Station
Broken Clouds Broken Clouds  
Wind Chill: 75°   Ceiling: 4500
Heat Index: 75°   Visibility: 10mi
Dew Point: 50°   Wind: 12mph
Humidity: 41%   Direction: 300°WNW
Pressure: 29.81"   Gusts: NA
Location:  30.2324°N, 81.8913°W
Report Text: KVQQ 311850Z 30010KT 10SM BKN045 24/10 A2981
Loading
Personal Weather Stations






























Interactive Weather Map
Tropical Storm Tracking
New forecast layout! Learn more

10-Day Weather Forecast

Advertisements
Track Severe Weather on mobile